Time;durP1;ratioP1;P1;durP2;ratioP2;P2;SDS_P1;SDS_P2;PMS_P1;PMS_P2;Temp;Humidity;BMP_temperature;BMP_pressure;BME280_temperature;BME280_humidity;BME280_pressure;Samples;Min_cycle;Max_cycle;Signal;HPM_P1;HPM_P2
2023/05/31 00:02:03;;;;;;;3.10;1.93;;;17.90;81.90;;;;;;5091138;28;20458;-68
2023/05/31 00:04:30;;;;;;;3.13;1.93;;;17.80;82.20;;;;;;5073506;28;20459;-68
2023/05/31 00:06:57;;;;;;;3.30;2.10;;;17.80;81.60;;;;;;5091753;28;20464;-68
2023/05/31 00:09:24;;;;;;;3.40;1.93;;;17.70;82.10;;;;;;5094937;28;20474;-68
2023/05/31 00:11:51;;;;;;;3.80;2.03;;;17.60;81.60;;;;;;5094862;28;20459;-68
2023/05/31 00:14:18;;;;;;;5.37;2.10;;;17.60;81.60;;;;;;5093515;28;20448;-68
2023/05/31 00:16:45;;;;;;;6.27;2.07;;;17.60;82.00;;;;;;5094838;28;20464;-68
2023/05/31 00:19:14;;;;;;;5.43;2.00;;;17.60;81.50;;;;;;5095010;28;20456;-68
2023/05/31 00:21:41;;;;;;;2.70;1.83;;;17.50;81.40;;;;;;5076531;28;20478;-68
2023/05/31 00:24:09;;;;;;;3.17;2.07;;;17.60;81.40;;;;;;5094873;28;20479;-68
2023/05/31 00:26:36;;;;;;;2.70;1.90;;;17.70;81.40;;;;;;5076872;28;20452;-68
2023/05/31 00:29:04;;;;;;;3.73;2.00;;;17.80;80.80;;;;;;5076805;28;20460;-68
2023/05/31 00:31:31;;;;;;;2.73;2.00;;;17.70;81.10;;;;;;5094587;28;20452;-68
2023/05/31 00:33:58;;;;;;;4.90;2.20;;;17.70;80.90;;;;;;5094514;28;20476;-68
2023/05/31 00:36:27;;;;;;;5.60;2.60;;;17.60;81.20;;;;;;5094509;28;20455;-68
2023/05/31 00:38:54;;;;;;;4.20;2.20;;;17.70;82.30;;;;;;5094512;28;20463;-68
2023/05/31 00:41:22;;;;;;;6.10;2.03;;;17.60;81.80;;;;;;5094454;28;20521;-68
2023/05/31 00:43:51;;;;;;;3.37;2.10;;;17.60;81.90;;;;;;5076392;28;20460;-68
2023/05/31 00:46:27;;;;;;;5.37;2.17;;;17.60;81.00;;;;;;5076258;28;20463;-68
2023/05/31 00:48:55;;;;;;;3.17;2.20;;;17.60;82.10;;;;;;5094070;28;20502;-68
2023/05/31 00:51:23;;;;;;;5.30;1.77;;;17.50;82.00;;;;;;5094025;28;20544;-68
2023/05/31 00:53:52;;;;;;;6.63;2.70;;;17.50;81.40;;;;;;5093509;28;20986;-68
2023/05/31 00:56:21;;;;;;;3.20;1.60;;;17.40;82.50;;;;;;5093938;28;21112;-68
2023/05/31 00:58:50;;;;;;;5.90;1.90;;;17.40;81.50;;;;;;5094095;28;20459;-68
2023/05/31 01:01:18;;;;;;;4.03;1.97;;;17.30;82.10;;;;;;5093896;28;20556;-68
2023/05/31 01:03:46;;;;;;;3.60;2.20;;;17.20;81.90;;;;;;5094106;28;20452;-68
2023/05/31 01:06:13;;;;;;;3.60;1.97;;;17.20;81.50;;;;;;5093438;28;20475;-68
2023/05/31 01:08:43;;;;;;;3.93;2.07;;;17.20;83.30;;;;;;5093839;28;20452;-68
2023/05/31 01:11:18;;;;;;;3.17;2.10;;;17.00;83.50;;;;;;5075936;28;20796;-68
2023/05/31 01:13:59;;;;;;;4.63;2.30;;;16.90;83.60;;;;;;5093698;28;20575;-68
2023/05/31 01:16:32;;;;;;;3.33;1.87;;;17.00;84.20;;;;;;5093644;28;20516;-68
2023/05/31 01:19:03;;;;;;;2.90;1.97;;;17.00;83.00;;;;;;5075555;28;20456;-68
2023/05/31 01:21:43;;;;;;;3.13;1.80;;;17.00;82.20;;;;;;5093655;28;20451;-68
2023/05/31 01:24:24;;;;;;;5.80;1.80;;;17.00;82.90;;;;;;5075690;28;20494;-68
2023/05/31 01:26:55;;;;;;;4.57;1.83;;;17.10;82.00;;;;;;5093753;28;20510;-68
2023/05/31 01:29:25;;;;;;;2.83;2.17;;;17.00;82.10;;;;;;5076165;28;20452;-68
2023/05/31 01:31:55;;;;;;;2.30;1.70;;;17.00;82.60;;;;;;5093784;28;21010;-68
2023/05/31 01:34:23;;;;;;;4.20;1.90;;;17.00;83.10;;;;;;5075410;28;20511;-68
2023/05/31 01:36:53;;;;;;;3.60;2.27;;;17.00;82.70;;;;;;5093116;28;20451;-68
2023/05/31 01:39:21;;;;;;;5.50;2.17;;;17.00;82.80;;;;;;5093253;28;20463;-68
2023/05/31 01:41:51;;;;;;;3.90;2.20;;;17.00;83.30;;;;;;5075315;28;20456;-68
2023/05/31 01:44:20;;;;;;;3.17;1.57;;;16.90;83.20;;;;;;5092995;28;20444;-68
2023/05/31 01:46:49;;;;;;;2.43;1.67;;;16.90;84.00;;;;;;5093086;28;20462;-68
2023/05/31 01:49:18;;;;;;;3.63;2.03;;;16.90;85.10;;;;;;5092925;28;20517;-68
2023/05/31 01:51:47;;;;;;;5.20;1.80;;;16.80;83.80;;;;;;5093162;28;20517;-68
2023/05/31 01:54:14;;;;;;;4.57;2.40;;;16.70;83.20;;;;;;5092650;28;20575;-68
2023/05/31 01:56:42;;;;;;;3.90;2.10;;;16.70;83.50;;;;;;5092730;28;20463;-68
2023/05/31 01:59:11;;;;;;;2.70;1.83;;;16.60;84.70;;;;;;5092795;28;20452;-68
2023/05/31 02:01:41;;;;;;;3.07;1.90;;;16.60;85.80;;;;;;5092412;28;20460;-68
2023/05/31 02:04:08;;;;;;;3.47;2.00;;;16.40;86.20;;;;;;5092766;28;20451;-68
2023/05/31 02:06:37;;;;;;;4.63;2.13;;;16.40;85.40;;;;;;5092510;28;20476;-68
2023/05/31 02:09:06;;;;;;;3.47;1.90;;;16.20;86.90;;;;;;5092675;28;20455;-68
2023/05/31 02:11:33;;;;;;;4.23;2.10;;;16.20;86.70;;;;;;5092660;28;20502;-68
2023/05/31 02:14:00;;;;;;;3.40;1.90;;;16.10;86.40;;;;;;5092585;28;20486;-68
2023/05/31 02:16:36;;;;;;;3.60;2.03;;;16.00;86.70;;;;;;5074644;28;20957;-68
2023/05/31 02:19:04;;;;;;;3.00;1.90;;;16.10;86.50;;;;;;5092667;28;20460;-68
2023/05/31 02:21:37;;;;;;;2.47;1.70;;;16.10;86.60;;;;;;5092639;28;20799;-68
2023/05/31 02:24:04;;;;;;;4.87;2.10;;;16.20;86.30;;;;;;5092341;28;20464;-68
2023/05/31 02:26:31;;;;;;;3.30;2.20;;;16.10;87.00;;;;;;5092615;28;20452;-68
2023/05/31 02:28:58;;;;;;;2.13;1.83;;;16.10;87.70;;;;;;5074695;28;20941;-68
2023/05/31 02:31:26;;;;;;;2.40;1.67;;;16.10;87.30;;;;;;5073958;28;20452;-68
2023/05/31 02:33:54;;;;;;;2.17;1.60;;;16.00;86.90;;;;;;5092155;28;20491;-68
2023/05/31 02:36:22;;;;;;;5.87;2.23;;;15.90;88.10;;;;;;5092155;28;20456;-68
2023/05/31 02:38:50;;;;;;;5.23;1.97;;;15.90;88.30;;;;;;5092173;28;20456;-68
2023/05/31 02:41:17;;;;;;;3.70;1.97;;;15.90;87.50;;;;;;5074150;28;20464;-68
2023/05/31 02:43:44;;;;;;;3.77;2.10;;;15.90;87.20;;;;;;5074225;28;20576;-68
2023/05/31 02:46:11;;;;;;;4.40;2.30;;;15.90;89.00;;;;;;5091924;28;20861;-68
2023/05/31 02:48:38;;;;;;;2.70;1.70;;;15.70;88.10;;;;;;5092201;28;20829;-68
2023/05/31 02:51:05;;;;;;;3.33;1.87;;;15.60;88.10;;;;;;5091830;28;20447;-68
2023/05/31 02:53:34;;;;;;;3.60;2.00;;;15.60;88.10;;;;;;5092021;28;20480;-68
2023/05/31 02:56:01;;;;;;;2.20;1.60;;;15.50;89.10;;;;;;5091939;28;20478;-68
2023/05/31 02:58:28;;;;;;;2.97;1.80;;;15.60;88.30;;;;;;5074100;28;20513;-68
2023/05/31 03:00:55;;;;;;;1.97;1.70;;;15.50;87.50;;;;;;5092020;28;20455;-68
2023/05/31 03:03:22;;;;;;;10.00;3.90;;;15.60;88.20;;;;;;5091946;28;20466;-68
2023/05/31 03:05:49;;;;;;;9.40;2.90;;;15.60;88.60;;;;;;5073807;28;20467;-68
2023/05/31 03:08:16;;;;;;;3.40;2.00;;;15.50;88.20;;;;;;5091932;28;20452;-68
2023/05/31 03:10:45;;;;;;;3.83;2.03;;;15.50;88.40;;;;;;5092143;28;20778;-68
2023/05/31 03:13:12;;;;;;;3.13;2.03;;;15.50;88.70;;;;;;5091820;28;20472;-68
2023/05/31 03:15:39;;;;;;;6.30;2.10;;;15.50;89.20;;;;;;5091474;28;20819;-68
2023/05/31 03:18:08;;;;;;;3.20;1.97;;;15.60;88.60;;;;;;5074169;28;20547;-68
2023/05/31 03:20:36;;;;;;;3.17;1.80;;;15.50;88.70;;;;;;5091969;28;20455;-68
2023/05/31 03:23:03;;;;;;;4.33;2.03;;;15.40;89.90;;;;;;5074443;28;20534;-68
2023/05/31 03:25:30;;;;;;;3.20;1.80;;;15.40;89.60;;;;;;5092108;28;20954;-68
2023/05/31 03:27:58;;;;;;;3.30;1.67;;;15.50;88.50;;;;;;5091615;28;20457;-68
2023/05/31 03:30:25;;;;;;;4.03;2.40;;;15.50;88.70;;;;;;5091754;28;20452;-68
2023/05/31 03:32:52;;;;;;;4.67;1.80;;;15.60;89.20;;;;;;5091566;28;20513;-68
2023/05/31 03:35:22;;;;;;;4.90;1.83;;;15.70;89.20;;;;;;5091461;28;20451;-68
2023/05/31 03:37:49;;;;;;;4.77;1.90;;;15.70;89.80;;;;;;5057703;28;20458;-68
2023/05/31 03:40:16;;;;;;;3.37;1.70;;;15.60;89.80;;;;;;5091631;28;20471;-68
2023/05/31 03:42:43;;;;;;;3.60;2.03;;;15.60;88.70;;;;;;5095212;28;20456;-68
2023/05/31 03:45:12;;;;;;;3.03;1.70;;;15.50;90.20;;;;;;5095411;28;20467;-68
2023/05/31 03:47:40;;;;;;;3.93;2.00;;;15.50;90.40;;;;;;5095329;28;20989;-68
2023/05/31 03:50:08;;;;;;;3.97;1.80;;;15.50;90.70;;;;;;5077480;28;20461;-68
2023/05/31 03:52:37;;;;;;;4.03;1.90;;;15.60;90.10;;;;;;5095264;28;20464;-68
2023/05/31 03:55:05;;;;;;;3.33;2.03;;;15.50;92.10;;;;;;5095244;28;21062;-67
2023/05/31 03:57:33;;;;;;;3.60;2.17;;;15.30;92.20;;;;;;5095105;28;20452;-67
2023/05/31 04:00:00;;;;;;;4.23;1.80;;;15.20;93.00;;;;;;5077174;28;20452;-68
2023/05/31 04:02:29;;;;;;;3.53;2.13;;;15.20;93.40;;;;;;5087748;28;20536;-68
2023/05/31 04:04:59;;;;;;;3.60;2.10;;;15.10;94.30;;;;;;5075003;28;20475;-68
2023/05/31 04:07:26;;;;;;;4.77;1.90;;;15.10;93.50;;;;;;5074606;28;20473;-68
2023/05/31 04:09:56;;;;;;;2.50;1.70;;;15.10;94.10;;;;;;5075023;28;20467;-68
2023/05/31 04:12:23;;;;;;;3.20;1.97;;;15.20;93.90;;;;;;5074809;28;20457;-68
2023/05/31 04:14:51;;;;;;;3.10;1.77;;;15.30;93.10;;;;;;5074954;28;20512;-68
2023/05/31 04:17:18;;;;;;;3.83;1.93;;;15.20;92.40;;;;;;5074839;28;20930;-68
2023/05/31 04:19:46;;;;;;;3.67;1.90;;;15.20;93.40;;;;;;5074816;28;20452;-68
2023/05/31 04:22:14;;;;;;;3.67;1.83;;;15.10;93.20;;;;;;5074598;28;20453;-68
2023/05/31 04:24:41;;;;;;;3.60;2.33;;;15.10;92.80;;;;;;5056716;28;20497;-67
2023/05/31 04:27:08;;;;;;;2.40;1.73;;;15.00;91.30;;;;;;5074272;28;20461;-68
2023/05/31 04:29:35;;;;;;;3.30;2.30;;;15.10;93.00;;;;;;5074628;28;20798;-68
2023/05/31 04:32:03;;;;;;;3.93;1.90;;;15.30;92.80;;;;;;5074275;28;20453;-68
2023/05/31 04:34:30;;;;;;;3.03;1.77;;;15.40;93.00;;;;;;5074047;28;20818;-68
2023/05/31 04:36:59;;;;;;;2.40;1.97;;;15.50;92.20;;;;;;5074227;28;20532;-68
2023/05/31 04:39:26;;;;;;;4.43;2.23;;;15.60;91.90;;;;;;5074161;28;20460;-68
2023/05/31 04:41:53;;;;;;;2.73;1.90;;;15.50;93.10;;;;;;5056277;28;20449;-67
2023/05/31 04:44:20;;;;;;;2.83;1.80;;;15.40;93.00;;;;;;5074150;28;20457;-68
2023/05/31 04:46:47;;;;;;;4.73;1.90;;;15.40;92.60;;;;;;5073859;28;20998;-68
2023/05/31 04:49:14;;;;;;;2.97;1.80;;;15.40;91.80;;;;;;5073831;28;20461;-68
2023/05/31 04:51:42;;;;;;;5.33;2.10;;;15.60;90.90;;;;;;5073305;28;20463;-68
2023/05/31 04:54:11;;;;;;;4.73;2.13;;;15.70;91.00;;;;;;5072528;28;20522;-67
2023/05/31 04:56:38;;;;;;;3.53;2.00;;;15.90;89.70;;;;;;5073402;28;20507;-68
2023/05/31 04:59:05;;;;;;;2.67;1.90;;;15.90;90.10;;;;;;5073370;28;20918;-68
2023/05/31 05:01:32;;;;;;;3.00;1.77;;;15.90;90.20;;;;;;5073116;28;20464;-67
2023/05/31 05:03:59;;;;;;;2.90;1.80;;;15.90;90.60;;;;;;5056238;28;20537;-68
2023/05/31 05:06:27;;;;;;;3.47;1.90;;;15.90;90.20;;;;;;5073535;28;20464;-68
2023/05/31 05:08:54;;;;;;;2.63;1.80;;;16.00;90.90;;;;;;5073903;28;20457;-68
2023/05/31 05:11:23;;;;;;;3.57;2.10;;;15.90;90.30;;;;;;5073766;28;20530;-68
2023/05/31 05:13:50;;;;;;;4.40;2.30;;;15.90;89.90;;;;;;5073769;28;20483;-68
2023/05/31 05:16:17;;;;;;;5.17;2.00;;;15.80;91.00;;;;;;5055690;28;20519;-68
2023/05/31 05:18:44;;;;;;;4.67;2.20;;;15.80;90.30;;;;;;5073433;28;20449;-68
2023/05/31 05:21:11;;;;;;;3.67;2.20;;;16.00;90.60;;;;;;5055597;28;20460;-68
2023/05/31 05:23:39;;;;;;;2.90;1.90;;;16.20;90.30;;;;;;5073199;28;20448;-68
2023/05/31 05:26:06;;;;;;;3.13;2.30;;;16.20;90.10;;;;;;5072728;28;20465;-68
2023/05/31 05:28:38;;;;;;;3.37;1.97;;;16.20;90.50;;;;;;5073131;28;20958;-68
2023/05/31 05:31:05;;;;;;;4.70;2.00;;;16.30;90.80;;;;;;5072910;28;20556;-68
2023/05/31 05:33:33;;;;;;;4.90;2.13;;;16.20;89.80;;;;;;5073102;28;20453;-68
2023/05/31 05:36:00;;;;;;;5.10;2.23;;;16.30;89.70;;;;;;5072686;28;20457;-68
2023/05/31 05:38:27;;;;;;;3.00;1.60;;;16.40;89.50;;;;;;5073010;28;20456;-68
2023/05/31 05:40:54;;;;;;;3.43;2.00;;;16.40;89.60;;;;;;5072978;28;20456;-67
2023/05/31 05:43:22;;;;;;;3.30;2.33;;;16.60;89.70;;;;;;5073041;28;20468;-66
2023/05/31 05:45:51;;;;;;;1.80;1.70;;;16.70;90.10;;;;;;5072923;28;20965;-66
2023/05/31 05:48:18;;;;;;;3.10;2.03;;;16.70;90.30;;;;;;5072713;28;20514;-66
2023/05/31 05:50:45;;;;;;;3.70;2.10;;;16.70;90.00;;;;;;5073019;28;20808;-66
2023/05/31 05:53:12;;;;;;;5.83;1.80;;;16.60;89.30;;;;;;5072840;28;20475;-66
2023/05/31 05:55:39;;;;;;;2.73;1.90;;;16.60;89.70;;;;;;5072822;28;20480;-66
2023/05/31 05:58:06;;;;;;;3.97;1.83;;;16.80;90.50;;;;;;5072685;28;20456;-66
2023/05/31 06:00:34;;;;;;;2.93;2.00;;;16.80;90.30;;;;;;5072718;28;20453;-66
2023/05/31 06:03:02;;;;;;;5.60;1.77;;;17.00;90.00;;;;;;5072893;28;20453;-66
2023/05/31 06:05:29;;;;;;;3.83;2.17;;;16.90;90.00;;;;;;5070590;28;20543;-66
2023/05/31 06:07:56;;;;;;;3.87;2.10;;;17.10;89.30;;;;;;5072222;28;21057;-66
2023/05/31 06:10:23;;;;;;;3.87;2.10;;;17.10;88.80;;;;;;5072505;28;20456;-66
2023/05/31 06:12:50;;;;;;;3.43;2.03;;;17.10;90.40;;;;;;5072443;28;20452;-66
2023/05/31 06:15:18;;;;;;;3.23;2.03;;;17.20;89.60;;;;;;5072174;28;20480;-66
2023/05/31 06:17:47;;;;;;;4.10;2.20;;;17.40;89.50;;;;;;5072298;28;20510;-66
2023/05/31 06:20:16;;;;;;;4.57;2.30;;;17.40;87.90;;;;;;5072168;28;20453;-66
2023/05/31 06:22:44;;;;;;;3.47;2.20;;;17.50;88.50;;;;;;5072307;28;20457;-66
2023/05/31 06:25:12;;;;;;;4.43;2.20;;;17.70;87.80;;;;;;5072168;28;20463;-66
2023/05/31 06:27:41;;;;;;;5.07;2.10;;;17.70;87.90;;;;;;5054389;28;20492;-66
2023/05/31 06:30:10;;;;;;;3.97;1.83;;;17.80;88.20;;;;;;5072053;28;20463;-66
2023/05/31 06:32:38;;;;;;;4.30;2.10;;;17.80;88.10;;;;;;5071972;28;21016;-66
2023/05/31 06:35:06;;;;;;;3.73;2.27;;;17.80;87.90;;;;;;5071888;28;20484;-66
2023/05/31 06:37:34;;;;;;;3.20;1.87;;;17.80;88.60;;;;;;5071933;28;20505;-67
2023/05/31 06:40:02;;;;;;;4.17;2.30;;;17.80;87.70;;;;;;5071922;28;20469;-66
2023/05/31 06:42:30;;;;;;;5.67;2.07;;;18.00;87.90;;;;;;5054253;28;20453;-67
2023/05/31 06:44:57;;;;;;;3.50;2.00;;;18.00;88.20;;;;;;5072048;28;20461;-66
2023/05/31 06:47:25;;;;;;;2.43;2.03;;;18.10;88.50;;;;;;5071758;28;20460;-67
2023/05/31 06:49:52;;;;;;;4.00;1.90;;;18.20;88.40;;;;;;5054465;28;20470;-66
2023/05/31 06:52:19;;;;;;;4.03;2.40;;;18.30;88.40;;;;;;5071920;28;20457;-67
2023/05/31 06:54:50;;;;;;;3.40;2.30;;;18.50;89.10;;;;;;5071792;28;20492;-67
2023/05/31 06:57:17;;;;;;;2.70;2.00;;;18.60;88.20;;;;;;5071887;28;20463;-67
2023/05/31 06:59:45;;;;;;;4.80;2.13;;;18.70;86.30;;;;;;5072093;28;20457;-67
2023/05/31 07:02:13;;;;;;;5.90;2.10;;;18.80;87.60;;;;;;5054185;28;20448;-67
2023/05/31 07:04:40;;;;;;;3.50;2.20;;;18.90;87.20;;;;;;5071906;28;20954;-67
2023/05/31 07:07:09;;;;;;;5.33;2.23;;;19.00;87.30;;;;;;5071427;28;20518;-67
2023/05/31 07:09:36;;;;;;;3.57;2.20;;;19.00;85.60;;;;;;5054026;28;20473;-67
2023/05/31 07:12:05;;;;;;;4.80;2.70;;;19.10;86.30;;;;;;5071687;28;20456;-67
2023/05/31 07:14:32;;;;;;;3.33;2.10;;;19.10;85.10;;;;;;5071396;28;20554;-67
2023/05/31 07:17:00;;;;;;;4.30;2.30;;;19.20;85.30;;;;;;5074094;28;20457;-67
2023/05/31 07:19:30;;;;;;;3.87;2.03;;;19.20;84.80;;;;;;5056510;28;20457;-67
2023/05/31 07:21:58;;;;;;;6.27;2.20;;;19.40;86.40;;;;;;5075643;28;20958;-67
2023/05/31 07:24:25;;;;;;;4.43;2.00;;;19.50;86.40;;;;;;5074517;28;20514;-67
2023/05/31 07:26:53;;;;;;;4.10;2.00;;;19.60;85.80;;;;;;5085947;28;20452;-67
2023/05/31 07:29:22;;;;;;;3.40;2.10;;;19.70;84.80;;;;;;5093140;28;20456;-67
2023/05/31 07:31:50;;;;;;;3.70;2.40;;;19.80;85.10;;;;;;5094256;28;20451;-67
2023/05/31 07:34:17;;;;;;;9.33;2.20;;;19.80;84.70;;;;;;5077237;28;20501;-66
2023/05/31 07:36:44;;;;;;;5.50;2.40;;;19.80;84.70;;;;;;5094681;28;20512;-67
2023/05/31 07:39:12;;;;;;;2.40;1.90;;;20.00;85.40;;;;;;5060985;28;20963;-67
2023/05/31 07:41:39;;;;;;;3.60;2.50;;;20.10;84.20;;;;;;5054893;28;20469;-67
2023/05/31 07:44:06;;;;;;;3.43;2.10;;;20.20;83.00;;;;;;5055004;28;20456;-67
2023/05/31 07:46:35;;;;;;;4.13;2.30;;;20.30;84.30;;;;;;5037137;28;20476;-67
2023/05/31 07:49:03;;;;;;;4.07;2.20;;;20.40;84.40;;;;;;5054700;28;20540;-67
2023/05/31 07:51:31;;;;;;;3.90;2.10;;;20.60;84.20;;;;;;5070509;28;20468;-67
2023/05/31 07:53:59;;;;;;;2.60;1.97;;;20.70;82.50;;;;;;5075129;28;20507;-67
2023/05/31 07:56:26;;;;;;;3.90;2.43;;;20.70;83.70;;;;;;5074315;28;20484;-67
2023/05/31 07:58:53;;;;;;;3.50;2.27;;;20.80;82.70;;;;;;5075269;28;20457;-67
2023/05/31 08:01:20;;;;;;;4.23;2.43;;;20.90;83.20;;;;;;5073490;28;20479;-67
2023/05/31 08:03:50;;;;;;;4.60;2.43;;;20.90;82.80;;;;;;5074431;28;20472;-67
2023/05/31 08:06:17;;;;;;;3.67;2.30;;;21.00;82.10;;;;;;5074286;28;20449;-68
2023/05/31 08:08:45;;;;;;;3.93;2.20;;;21.10;83.50;;;;;;5068278;28;21005;-67
2023/05/31 08:11:12;;;;;;;7.37;2.80;;;21.10;83.00;;;;;;5054547;28;20460;-67
2023/05/31 08:13:39;;;;;;;4.13;2.40;;;21.30;83.60;;;;;;5054672;28;20453;-68
2023/05/31 08:16:12;;;;;;;3.30;2.37;;;21.50;82.50;;;;;;5053209;28;20505;-67
2023/05/31 08:18:39;;;;;;;4.10;2.40;;;21.50;82.00;;;;;;5054590;28;20497;-67
2023/05/31 08:21:08;;;;;;;8.10;2.80;;;21.70;80.80;;;;;;5054539;28;20994;-67
2023/05/31 08:23:38;;;;;;;4.60;2.60;;;21.70;80.50;;;;;;5074057;28;20457;-67
2023/05/31 08:26:05;;;;;;;4.77;2.80;;;21.80;80.90;;;;;;5070070;28;20473;-67
2023/05/31 08:28:32;;;;;;;4.80;2.53;;;21.90;80.30;;;;;;5055819;28;20462;-67
2023/05/31 08:30:59;;;;;;;5.27;2.60;;;22.00;80.70;;;;;;5054272;28;20481;-67
2023/05/31 08:33:30;;;;;;;2.43;2.03;;;22.00;79.80;;;;;;5071885;28;20943;-67
2023/05/31 08:35:59;;;;;;;4.57;2.40;;;22.20;80.60;;;;;;5074550;28;20480;-68
2023/05/31 08:38:28;;;;;;;3.43;2.53;;;22.30;79.00;;;;;;5074469;28;20464;-68
2023/05/31 08:40:57;;;;;;;4.40;2.47;;;22.40;78.40;;;;;;5074262;28;20468;-67
2023/05/31 08:43:26;;;;;;;3.80;2.50;;;22.50;78.40;;;;;;5072517;28;20468;-67
2023/05/31 08:45:55;;;;;;;3.17;2.20;;;22.60;78.40;;;;;;5040841;28;20815;-67
2023/05/31 08:48:34;;;;;;;3.93;2.60;;;22.70;78.70;;;;;;5073892;28;20480;-67
2023/05/31 08:51:05;;;;;;;7.53;3.07;;;22.70;77.30;;;;;;5074127;28;20456;-67
2023/05/31 08:53:35;;;;;;;3.80;2.40;;;22.80;77.20;;;;;;5074047;28;20495;-67
2023/05/31 08:56:04;;;;;;;4.17;2.60;;;22.90;78.20;;;;;;5073768;28;21073;-67
2023/05/31 08:58:32;;;;;;;5.07;2.40;;;23.00;79.10;;;;;;5090530;28;20460;-67
2023/05/31 09:01:00;;;;;;;4.53;2.40;;;23.10;78.00;;;;;;5093433;28;20491;-69
2023/05/31 09:03:28;;;;;;;4.77;2.50;;;23.20;77.20;;;;;;5093433;28;20515;-67
2023/05/31 09:05:56;;;;;;;8.63;2.40;;;23.40;78.00;;;;;;5093316;28;20506;-68
2023/05/31 09:08:23;;;;;;;4.77;2.40;;;23.60;76.90;;;;;;5093791;28;20499;-67
2023/05/31 09:10:52;;;;;;;5.00;2.27;;;23.70;77.10;;;;;;5093686;28;20464;-67
2023/05/31 09:13:20;;;;;;;5.10;2.60;;;23.70;76.60;;;;;;5094007;28;20464;-68
2023/05/31 09:15:49;;;;;;;5.10;2.40;;;23.90;76.40;;;;;;5093779;28;20491;-68
2023/05/31 09:18:20;;;;;;;6.53;2.30;;;24.00;76.20;;;;;;5093343;28;20463;-67
2023/05/31 09:20:52;;;;;;;4.27;2.67;;;24.00;75.70;;;;;;5093437;28;20459;-67
2023/05/31 09:23:19;;;;;;;6.53;2.60;;;24.00;77.30;;;;;;5093478;28;20520;-68
2023/05/31 09:25:48;;;;;;;5.03;2.80;;;24.10;75.30;;;;;;5093506;28;20945;-68
2023/05/31 09:28:18;;;;;;;4.80;2.33;;;24.20;75.40;;;;;;5093455;28;20444;-67
2023/05/31 09:30:46;;;;;;;5.53;2.23;;;24.20;74.20;;;;;;5093590;28;20452;-67
2023/05/31 09:33:15;;;;;;;5.33;2.70;;;24.30;73.80;;;;;;5093292;28;20467;-68
2023/05/31 09:35:57;;;;;;;3.87;2.53;;;24.40;74.20;;;;;;5093352;28;20490;-67
2023/05/31 09:38:32;;;;;;;3.80;2.87;;;24.50;72.80;;;;;;5077906;28;20480;-68
2023/05/31 09:41:12;;;;;;;5.47;2.90;;;24.50;73.10;;;;;;5055979;28;20591;-68
2023/05/31 09:43:41;;;;;;;7.90;2.60;;;24.50;71.40;;;;;;5072777;28;20876;-68
2023/05/31 09:46:20;;;;;;;8.50;2.43;;;24.50;73.80;;;;;;5055382;28;20445;-67
2023/05/31 09:48:59;;;;;;;4.20;2.40;;;24.60;73.20;;;;;;5072214;28;20489;-68
2023/05/31 09:51:27;;;;;;;4.83;2.60;;;24.80;73.80;;;;;;5072687;28;20843;-68
2023/05/31 09:53:55;;;;;;;2.90;2.17;;;24.90;72.60;;;;;;5072597;28;20453;-68
2023/05/31 09:56:25;;;;;;;3.70;2.20;;;24.90;71.30;;;;;;5054735;28;20542;-67
2023/05/31 09:58:56;;;;;;;3.90;2.60;;;24.90;72.00;;;;;;5072456;28;20559;-68
2023/05/31 10:01:23;;;;;;;4.10;2.60;;;25.10;71.60;;;;;;5072339;28;20845;-68
2023/05/31 10:03:51;;;;;;;4.23;2.47;;;25.20;71.20;;;;;;5072581;28;20513;-68
2023/05/31 10:06:18;;;;;;;4.33;2.30;;;25.30;72.70;;;;;;5072119;28;20927;-68
2023/05/31 10:08:46;;;;;;;4.23;2.43;;;25.40;71.10;;;;;;5072642;28;20826;-68
2023/05/31 10:11:18;;;;;;;5.00;2.67;;;25.50;69.80;;;;;;5072200;28;20543;-68
2023/05/31 10:13:47;;;;;;;5.70;2.17;;;25.60;72.30;;;;;;5072244;28;20459;-68
2023/05/31 10:16:17;;;;;;;5.60;2.80;;;25.70;70.80;;;;;;5072053;28;21010;-68
2023/05/31 10:18:46;;;;;;;4.67;2.40;;;25.80;71.30;;;;;;5072220;28;20510;-68
2023/05/31 10:21:22;;;;;;;5.53;2.73;;;25.90;71.10;;;;;;5072098;28;20468;-68
2023/05/31 10:23:59;;;;;;;4.37;2.37;;;25.90;71.00;;;;;;5072368;28;20475;-68
2023/05/31 10:26:35;;;;;;;3.50;2.33;;;26.10;70.20;;;;;;5054908;28;20452;-68
2023/05/31 10:29:11;;;;;;;4.90;2.70;;;26.20;69.30;;;;;;5055178;28;20456;-68
2023/05/31 10:31:46;;;;;;;4.90;2.50;;;26.30;69.70;;;;;;5072102;28;20460;-67
2023/05/31 10:34:19;;;;;;;3.27;2.47;;;26.40;69.20;;;;;;5072222;28;20547;-68
2023/05/31 10:36:47;;;;;;;3.50;2.60;;;26.50;68.80;;;;;;5071953;28;20480;-68
2023/05/31 10:39:22;;;;;;;3.87;2.70;;;26.50;69.00;;;;;;5072161;28;20453;-68
2023/05/31 10:41:56;;;;;;;5.80;2.63;;;26.40;68.80;;;;;;5072165;28;20535;-68
2023/05/31 10:44:33;;;;;;;3.70;2.60;;;26.60;69.30;;;;;;5070403;28;20465;-67
2023/05/31 10:47:09;;;;;;;4.60;2.30;;;26.60;67.50;;;;;;5062076;28;20469;-68
2023/05/31 10:49:37;;;;;;;7.43;3.20;;;26.60;68.60;;;;;;5051906;28;20477;-67
2023/05/31 10:52:06;;;;;;;2.70;2.33;;;26.70;68.90;;;;;;5051130;28;20460;-67
2023/05/31 10:54:34;;;;;;;3.57;2.47;;;26.80;69.00;;;;;;5033638;28;20458;-67
2023/05/31 10:57:05;;;;;;;4.73;2.57;;;27.00;68.70;;;;;;5051377;28;20481;-67
2023/05/31 10:59:42;;;;;;;4.90;2.80;;;27.10;67.10;;;;;;5034409;28;20469;-67
2023/05/31 11:02:12;;;;;;;4.63;2.70;;;27.20;67.30;;;;;;5051374;28;20927;-67
2023/05/31 11:04:39;;;;;;;3.37;2.60;;;27.40;68.40;;;;;;5051552;28;20534;-67
2023/05/31 11:07:17;;;;;;;4.63;2.50;;;27.50;67.70;;;;;;5051083;28;20462;-67
2023/05/31 11:09:58;;;;;;;3.53;2.53;;;27.50;67.30;;;;;;5034143;28;20449;-67
2023/05/31 11:12:34;;;;;;;3.90;2.53;;;27.40;66.00;;;;;;5051181;28;20454;-68
2023/05/31 11:15:03;;;;;;;4.50;2.30;;;27.60;65.40;;;;;;5051473;28;20461;-67
2023/05/31 11:17:40;;;;;;;5.23;2.90;;;27.80;66.70;;;;;;5051285;28;20482;-68
2023/05/31 11:20:15;;;;;;;3.00;2.33;;;28.00;66.30;;;;;;5051647;28;20540;-68
2023/05/31 11:22:43;;;;;;;2.90;2.00;;;28.20;66.60;;;;;;5051462;28;20489;-67
2023/05/31 11:25:21;;;;;;;3.30;2.47;;;28.00;66.00;;;;;;5051714;28;20450;-68
2023/05/31 11:27:49;;;;;;;3.43;2.47;;;27.90;64.30;;;;;;5051583;28;20550;-68
2023/05/31 11:30:17;;;;;;;3.40;2.20;;;27.90;65.10;;;;;;5051627;28;20453;-67
2023/05/31 11:33:16;;;;;;;4.40;2.50;;;28.10;65.60;;;;;;5033932;28;20458;-68
2023/05/31 11:35:44;;;;;;;3.60;2.53;;;28.20;64.70;;;;;;5051512;28;20493;-69
2023/05/31 11:38:12;;;;;;;4.97;2.40;;;28.30;65.10;;;;;;5051833;28;21067;-68
2023/05/31 11:40:39;;;;;;;4.93;2.70;;;28.40;64.00;;;;;;5071473;28;20449;-68
2023/05/31 11:43:09;;;;;;;2.50;2.07;;;28.30;62.60;;;;;;5071644;28;20788;-67
2023/05/31 11:45:46;;;;;;;4.07;2.33;;;28.20;64.50;;;;;;5071096;28;20452;-67
2023/05/31 11:48:32;;;;;;;3.80;2.50;;;28.20;62.60;;;;;;5070734;28;20537;-68
2023/05/31 11:51:00;;;;;;;3.30;2.40;;;28.20;64.20;;;;;;5070912;28;21051;-68
2023/05/31 11:53:29;;;;;;;8.97;2.60;;;28.30;62.60;;;;;;5088506;28;20451;-67
2023/05/31 11:55:58;;;;;;;5.00;2.30;;;28.30;61.10;;;;;;5090667;28;20558;-68
2023/05/31 11:58:28;;;;;;;3.10;2.20;;;28.30;64.80;;;;;;5090682;28;20464;-68
2023/05/31 12:00:59;;;;;;;5.27;2.60;;;28.60;61.60;;;;;;5090486;28;20480;-68
2023/05/31 12:03:32;;;;;;;3.60;2.40;;;28.70;63.40;;;;;;5093727;28;20943;-68
2023/05/31 12:06:00;;;;;;;3.80;2.70;;;28.80;61.60;;;;;;5094388;28;20542;-68
2023/05/31 12:08:28;;;;;;;3.67;2.27;;;28.90;62.30;;;;;;5094305;28;20473;-67
2023/05/31 12:11:02;;;;;;;2.83;2.20;;;29.00;62.00;;;;;;5076582;28;20517;-67
2023/05/31 12:13:31;;;;;;;3.17;2.27;;;29.20;63.20;;;;;;5093984;28;20463;-68
2023/05/31 12:15:59;;;;;;;4.47;2.73;;;29.20;61.50;;;;;;5094193;28;20475;-68
2023/05/31 12:18:30;;;;;;;4.23;2.40;;;29.20;60.30;;;;;;5076239;28;20555;-67
2023/05/31 12:20:58;;;;;;;3.73;2.20;;;28.90;62.10;;;;;;5094064;28;21004;-67
2023/05/31 12:23:27;;;;;;;3.10;2.37;;;29.10;61.10;;;;;;5093736;28;20455;-68
2023/05/31 12:25:59;;;;;;;2.70;2.40;;;29.10;59.50;;;;;;5093701;28;20973;-69
2023/05/31 12:28:29;;;;;;;4.47;2.47;;;29.30;58.30;;;;;;5076729;28;20448;-68
2023/05/31 12:30:56;;;;;;;3.50;2.20;;;29.40;59.90;;;;;;5093934;28;20535;-68
2023/05/31 12:33:24;;;;;;;3.03;2.23;;;29.50;59.60;;;;;;5093785;28;20452;-69
2023/05/31 12:35:54;;;;;;;4.43;2.43;;;29.80;60.50;;;;;;5086023;28;20556;-67
2023/05/31 12:38:28;;;;;;;3.30;2.30;;;29.90;59.20;;;;;;5072384;28;20452;-69
2023/05/31 12:40:55;;;;;;;4.10;2.13;;;30.20;58.80;;;;;;5069048;28;20503;-68
2023/05/31 12:43:25;;;;;;;3.07;2.10;;;30.30;60.90;;;;;;5072505;28;20456;-68
2023/05/31 12:45:53;;;;;;;3.07;2.30;;;30.30;58.40;;;;;;5073071;28;20472;-68
2023/05/31 12:48:24;;;;;;;3.60;2.17;;;30.30;58.30;;;;;;5072790;28;20457;-67
2023/05/31 12:50:52;;;;;;;3.40;2.37;;;30.40;56.60;;;;;;5072873;28;20472;-68
2023/05/31 12:53:22;;;;;;;5.20;2.67;;;30.50;58.10;;;;;;5072954;28;20742;-67
2023/05/31 12:55:49;;;;;;;6.60;2.57;;;30.60;57.40;;;;;;5072634;28;20456;-67
2023/05/31 12:58:17;;;;;;;3.50;2.10;;;30.50;56.80;;;;;;5070530;28;20457;-68